Time;durP1;ratioP1;P1;durP2;ratioP2;P2;SDS_P1;SDS_P2;PMS_P1;PMS_P2;Temp;Humidity;BMP_temperature;BMP_pressure;BME280_temperature;BME280_humidity;BME280_pressure;Samples;Min_cycle;Max_cycle;Signal;HPM_P1;HPM_P2
2023/05/22 00:02:37;;;;;;;15.73;14.13;;;19.80;97.10;;;;;;4996708;28;20033;-50
2023/05/22 00:05:23;;;;;;;14.55;13.15;;;19.70;97.20;;;;;;5013549;28;20018;-51
2023/05/22 00:08:12;;;;;;;14.95;13.45;;;19.70;97.30;;;;;;5013072;28;20042;-51
2023/05/22 00:10:58;;;;;;;15.45;13.98;;;19.60;97.30;;;;;;5013827;28;20033;-51
2023/05/22 00:13:44;;;;;;;15.85;14.18;;;19.60;97.30;;;;;;5012461;28;20034;-50
2023/05/22 00:16:30;;;;;;;17.33;14.27;;;19.50;97.30;;;;;;5011705;28;20030;-50
2023/05/22 00:19:17;;;;;;;19.00;15.23;;;19.50;97.40;;;;;;5013947;28;20038;-50
2023/05/22 00:22:04;;;;;;;15.05;13.55;;;19.40;97.30;;;;;;5012659;28;20038;-52
2023/05/22 00:24:50;;;;;;;15.00;13.50;;;19.40;97.30;;;;;;5013535;28;20518;-51
2023/05/22 00:27:36;;;;;;;16.02;13.52;;;19.40;97.20;;;;;;5012883;28;20037;-54
2023/05/22 00:30:22;;;;;;;15.10;13.57;;;19.40;97.20;;;;;;5012675;28;20041;-49
2023/05/22 00:33:07;;;;;;;15.43;13.80;;;19.30;97.50;;;;;;5012576;28;20030;-53
2023/05/22 00:35:53;;;;;;;15.90;13.13;;;19.30;97.20;;;;;;5011498;28;20041;-53
2023/05/22 00:38:39;;;;;;;13.98;12.60;;;19.30;97.10;;;;;;5012041;28;20442;-53
2023/05/22 00:41:26;;;;;;;14.10;12.75;;;19.30;97.10;;;;;;5013631;28;20022;-52
2023/05/22 00:44:12;;;;;;;15.40;13.23;;;19.30;97.00;;;;;;5013536;28;20109;-54
2023/05/22 00:46:58;;;;;;;16.17;12.50;;;19.30;97.00;;;;;;5012150;28;20033;-50
2023/05/22 00:49:45;;;;;;;13.88;12.55;;;19.30;96.80;;;;;;5012249;28;20479;-52
2023/05/22 00:52:32;;;;;;;14.70;13.02;;;19.30;96.80;;;;;;5012822;28;20032;-53
2023/05/22 00:55:18;;;;;;;13.55;12.20;;;19.30;96.70;;;;;;5013320;28;20450;-50
2023/05/22 00:58:07;;;;;;;13.55;12.15;;;19.30;96.50;;;;;;5011899;28;20549;-51
2023/05/22 01:00:54;;;;;;;13.35;11.73;;;19.30;96.50;;;;;;5013097;28;20088;-52
2023/05/22 01:03:43;;;;;;;12.82;11.50;;;19.20;96.30;;;;;;5012784;28;20469;-48
2023/05/22 01:06:31;;;;;;;13.27;11.93;;;19.20;96.20;;;;;;5009691;28;20036;-49
2023/05/22 01:09:17;;;;;;;13.23;12.00;;;19.30;96.00;;;;;;5012940;28;20114;-52
2023/05/22 01:12:02;;;;;;;13.27;11.85;;;19.20;96.10;;;;;;5010941;28;20590;-48
2023/05/22 01:15:23;;;;;;;12.40;11.05;;;19.30;96.00;;;;;;5010133;28;20030;-49
2023/05/22 01:18:18;;;;;;;12.75;10.88;;;19.20;95.90;;;;;;4995182;28;20030;-49
2023/05/22 01:21:24;;;;;;;13.27;11.40;;;19.20;95.80;;;;;;5012301;28;20554;-52
2023/05/22 01:24:32;;;;;;;13.20;10.68;;;19.20;95.80;;;;;;5012869;28;20438;-47
2023/05/22 01:27:34;;;;;;;12.65;11.35;;;19.10;95.70;;;;;;5012455;28;20029;-46
2023/05/22 01:30:52;;;;;;;11.93;10.60;;;19.10;95.60;;;;;;5015747;28;20152;-49
2023/05/22 01:33:46;;;;;;;12.65;10.63;;;19.10;95.60;;;;;;5013191;28;20033;-49
2023/05/22 01:36:34;;;;;;;11.73;10.52;;;19.00;95.50;;;;;;5012360;28;20647;-48
2023/05/22 01:39:23;;;;;;;10.98;9.95;;;19.00;95.50;;;;;;5011962;28;20592;-48
2023/05/22 01:42:09;;;;;;;14.93;11.57;;;19.00;95.40;;;;;;5012893;28;20060;-48
2023/05/22 01:44:56;;;;;;;11.45;9.85;;;19.00;95.40;;;;;;5011905;28;20030;-49
2023/05/22 01:47:42;;;;;;;11.05;10.05;;;19.00;95.40;;;;;;5011006;28;20026;-50
2023/05/22 01:50:29;;;;;;;11.25;9.82;;;19.00;95.40;;;;;;5011402;28;20422;-46
2023/05/22 01:53:54;;;;;;;11.20;9.82;;;19.00;95.30;;;;;;5011368;28;20030;-49
2023/05/22 01:56:54;;;;;;;10.95;9.85;;;18.90;95.30;;;;;;4983734;28;20156;-51
2023/05/22 01:59:47;;;;;;;10.82;9.70;;;18.90;95.40;;;;;;5011058;28;20038;-47
2023/05/22 02:02:36;;;;;;;12.55;10.43;;;18.90;95.40;;;;;;5012163;28;20026;-48
2023/05/22 02:05:25;;;;;;;11.73;10.27;;;18.90;95.30;;;;;;5011039;28;20422;-49
2023/05/22 02:08:13;;;;;;;14.63;10.07;;;18.90;95.30;;;;;;5006604;28;20094;-49
2023/05/22 02:11:00;;;;;;;11.48;10.10;;;18.80;95.40;;;;;;5011775;28;20065;-47
2023/05/22 02:13:47;;;;;;;11.35;9.40;;;18.80;95.40;;;;;;5011500;28;20045;-50
2023/05/22 02:16:33;;;;;;;10.95;9.85;;;18.80;95.50;;;;;;5011834;28;20033;-48
2023/05/22 02:19:19;;;;;;;10.90;9.80;;;18.80;95.40;;;;;;5011623;28;20034;-48
2023/05/22 02:22:08;;;;;;;10.90;9.80;;;18.70;95.40;;;;;;5010149;28;20032;-48
2023/05/22 02:24:54;;;;;;;10.68;9.60;;;18.80;95.40;;;;;;5011081;28;20033;-49
2023/05/22 02:27:45;;;;;;;10.85;9.75;;;18.70;95.40;;;;;;5011048;28;20033;-47
2023/05/22 02:30:30;;;;;;;10.98;9.98;;;18.70;95.40;;;;;;5012133;28;20502;-47
2023/05/22 02:33:17;;;;;;;10.30;9.30;;;18.70;95.30;;;;;;5010750;28;20037;-49
2023/05/22 02:36:03;;;;;;;10.95;9.25;;;18.70;95.40;;;;;;5010320;28;20084;-48
2023/05/22 02:38:49;;;;;;;11.13;9.52;;;18.60;95.40;;;;;;5011021;28;20400;-47
2023/05/22 02:41:35;;;;;;;13.18;9.88;;;18.60;95.50;;;;;;5011275;28;20029;-48
2023/05/22 02:44:21;;;;;;;10.18;9.18;;;18.60;95.50;;;;;;5010597;28;20058;-48
2023/05/22 02:47:07;;;;;;;10.50;9.50;;;18.50;95.50;;;;;;5010094;28;20550;-51
2023/05/22 02:49:53;;;;;;;14.82;10.25;;;18.60;95.40;;;;;;5010396;28;20091;-49
2023/05/22 02:52:39;;;;;;;9.95;9.00;;;18.50;95.40;;;;;;5013180;28;20021;-53
2023/05/22 02:55:25;;;;;;;11.05;9.32;;;18.50;95.40;;;;;;5010757;28;20026;-54
2023/05/22 02:58:11;;;;;;;11.63;9.63;;;18.50;95.40;;;;;;5014282;28;20104;-48
2023/05/22 03:00:57;;;;;;;11.05;9.73;;;18.50;95.40;;;;;;5013651;28;20088;-48
2023/05/22 03:03:43;;;;;;;10.55;9.45;;;18.40;95.30;;;;;;5014864;28;20109;-49
2023/05/22 03:06:30;;;;;;;11.45;9.68;;;18.40;95.50;;;;;;5013030;28;20034;-47
2023/05/22 03:09:16;;;;;;;9.93;8.98;;;18.40;95.50;;;;;;5013885;28;20073;-47
2023/05/22 03:12:03;;;;;;;13.38;9.45;;;18.30;95.60;;;;;;5014474;28;20018;-47
2023/05/22 03:14:49;;;;;;;12.02;10.68;;;18.30;95.60;;;;;;5013899;28;20029;-51
2023/05/22 03:17:35;;;;;;;14.32;10.23;;;18.30;95.60;;;;;;5014776;28;20564;-47
2023/05/22 03:20:21;;;;;;;9.82;8.80;;;18.30;95.70;;;;;;5013549;28;20451;-48
2023/05/22 03:23:07;;;;;;;14.15;9.60;;;18.10;95.80;;;;;;5013489;28;20026;-48
2023/05/22 03:25:53;;;;;;;13.90;10.00;;;18.10;95.80;;;;;;5014065;28;20506;-48
2023/05/22 03:28:39;;;;;;;11.80;9.40;;;18.10;95.80;;;;;;5014132;28;20463;-51
2023/05/22 03:31:27;;;;;;;10.98;9.27;;;18.10;95.80;;;;;;5014358;28;20038;-48
2023/05/22 03:34:13;;;;;;;10.38;9.27;;;18.10;95.90;;;;;;5014391;28;20035;-48
2023/05/22 03:36:59;;;;;;;10.00;9.00;;;18.10;95.90;;;;;;5015293;28;20037;-50
2023/05/22 03:39:45;;;;;;;11.80;9.52;;;18.20;95.80;;;;;;5015574;28;20022;-48
2023/05/22 03:42:31;;;;;;;10.48;8.93;;;18.20;95.70;;;;;;5014442;28;20144;-50
2023/05/22 03:45:17;;;;;;;10.27;9.05;;;18.20;95.70;;;;;;5012601;28;20030;-50
2023/05/22 03:48:03;;;;;;;13.95;9.25;;;18.20;95.70;;;;;;5007104;28;20030;-51
2023/05/22 03:50:49;;;;;;;10.70;9.70;;;18.20;95.70;;;;;;5013031;28;20041;-51
2023/05/22 03:53:35;;;;;;;13.85;9.73;;;18.20;95.70;;;;;;5014976;28;20027;-47
2023/05/22 03:56:21;;;;;;;11.40;10.23;;;18.20;95.70;;;;;;5012403;28;20026;-47
2023/05/22 03:59:07;;;;;;;9.80;8.80;;;18.20;95.70;;;;;;5012912;28;20038;-49
2023/05/22 04:01:53;;;;;;;9.65;8.63;;;18.10;95.70;;;;;;5012567;28;20092;-47
2023/05/22 04:04:39;;;;;;;14.70;9.80;;;18.10;95.70;;;;;;5013614;28;20069;-47
2023/05/22 04:07:25;;;;;;;16.02;9.63;;;18.10;95.80;;;;;;5011827;28;20041;-48
2023/05/22 04:10:11;;;;;;;9.98;9.07;;;18.10;96.00;;;;;;5013635;28;20022;-49
2023/05/22 04:12:58;;;;;;;11.10;10.02;;;18.20;95.70;;;;;;5013611;28;20486;-50
2023/05/22 04:15:45;;;;;;;13.85;9.35;;;18.20;95.70;;;;;;5012416;28;20529;-49
2023/05/22 04:18:31;;;;;;;10.98;8.85;;;18.20;95.70;;;;;;5013970;28;20033;-49
2023/05/22 04:21:17;;;;;;;11.65;9.70;;;18.30;95.70;;;;;;5012298;28;20041;-49
2023/05/22 04:24:08;;;;;;;11.25;9.70;;;18.30;95.60;;;;;;5013286;28;20030;-49
2023/05/22 04:26:59;;;;;;;10.98;9.88;;;18.30;95.50;;;;;;5013996;28;20540;-50
2023/05/22 04:29:45;;;;;;;11.40;9.20;;;18.30;95.50;;;;;;5013760;28;20165;-46
2023/05/22 04:32:31;;;;;;;12.18;9.15;;;18.30;95.60;;;;;;5013438;28;20034;-47
2023/05/22 04:35:18;;;;;;;12.35;8.68;;;18.40;95.60;;;;;;5011946;28;20088;-50
2023/05/22 04:38:05;;;;;;;10.52;9.55;;;18.40;95.50;;;;;;5006567;28;20026;-48
2023/05/22 04:40:51;;;;;;;12.38;9.60;;;18.50;95.50;;;;;;4993436;28;20113;-50
2023/05/22 04:43:38;;;;;;;10.05;8.75;;;18.50;95.40;;;;;;4993891;28;20041;-48
2023/05/22 04:46:24;;;;;;;11.02;9.80;;;18.50;95.30;;;;;;5005605;28;20558;-49
2023/05/22 04:49:10;;;;;;;10.43;9.27;;;18.50;95.50;;;;;;4994184;28;20037;-47
2023/05/22 04:51:56;;;;;;;10.85;9.75;;;18.50;95.40;;;;;;5009137;28;20450;-47
2023/05/22 04:54:43;;;;;;;12.48;10.93;;;18.50;95.30;;;;;;5012738;28;20026;-49
2023/05/22 04:57:29;;;;;;;12.77;10.18;;;18.50;95.20;;;;;;5012749;28;20041;-52
2023/05/22 05:00:15;;;;;;;12.23;10.52;;;18.50;95.50;;;;;;5011711;28;20034;-50
2023/05/22 05:03:02;;;;;;;11.63;9.40;;;18.60;95.50;;;;;;5012288;28;20025;-51
2023/05/22 05:05:48;;;;;;;13.32;9.13;;;18.60;95.50;;;;;;5012969;28;20034;-51
2023/05/22 05:08:34;;;;;;;10.50;9.15;;;18.60;95.50;;;;;;5011301;28;20058;-52
2023/05/22 05:11:20;;;;;;;10.50;9.30;;;18.80;95.40;;;;;;5013365;28;20026;-53
2023/05/22 05:14:09;;;;;;;11.43;8.90;;;18.90;95.30;;;;;;5011690;28;20406;-53
2023/05/22 05:16:55;;;;;;;9.73;8.73;;;18.90;95.30;;;;;;4991376;28;20049;-53
2023/05/22 05:19:41;;;;;;;14.73;11.98;;;19.00;95.20;;;;;;4992064;28;20034;-53
2023/05/22 05:22:27;;;;;;;11.15;10.02;;;19.10;95.20;;;;;;4992332;28;20110;-51
2023/05/22 05:25:13;;;;;;;11.68;9.40;;;19.20;95.10;;;;;;4992725;28;20026;-51
2023/05/22 05:27:59;;;;;;;16.23;9.73;;;19.20;95.00;;;;;;5007787;28;20402;-55
2023/05/22 05:30:45;;;;;;;11.93;9.75;;;19.30;95.10;;;;;;5011602;28;20030;-54
2023/05/22 05:33:31;;;;;;;16.80;14.60;;;19.40;95.00;;;;;;5011179;28;20041;-50
2023/05/22 05:36:17;;;;;;;17.13;12.27;;;19.40;94.90;;;;;;5010523;28;20033;-49
2023/05/22 05:39:03;;;;;;;30.80;23.17;;;19.40;95.30;;;;;;5011173;28;20061;-53
2023/05/22 05:41:49;;;;;;;18.55;12.07;;;19.50;95.00;;;;;;5011076;28;20034;-53
2023/05/22 05:44:35;;;;;;;11.80;9.20;;;19.60;95.20;;;;;;5012490;28;20037;-50
2023/05/22 05:47:22;;;;;;;10.27;9.18;;;19.60;94.90;;;;;;5011324;28;20490;-51
2023/05/22 05:50:09;;;;;;;11.90;10.40;;;19.60;94.90;;;;;;5011016;28;20030;-49
2023/05/22 05:52:55;;;;;;;26.27;23.33;;;19.70;94.90;;;;;;5003942;28;20096;-54
2023/05/22 05:55:41;;;;;;;16.25;14.60;;;19.70;94.90;;;;;;5011669;28;20406;-55
2023/05/22 05:58:27;;;;;;;14.13;10.95;;;19.80;94.90;;;;;;5012166;28;20037;-53
2023/05/22 06:01:13;;;;;;;11.95;9.60;;;19.80;95.00;;;;;;5010555;28;20034;-54
2023/05/22 06:04:04;;;;;;;14.55;9.88;;;19.80;95.10;;;;;;5007835;28;20482;-52
2023/05/22 06:06:50;;;;;;;14.00;11.57;;;19.80;95.00;;;;;;4991038;28;20038;-51
2023/05/22 06:09:36;;;;;;;47.42;32.80;;;19.90;95.00;;;;;;4993274;28;20454;-54
2023/05/22 06:12:22;;;;;;;23.25;18.13;;;19.90;95.00;;;;;;4993234;28;20030;-51
2023/05/22 06:15:08;;;;;;;19.70;17.60;;;20.10;95.00;;;;;;4993097;28;20030;-53
2023/05/22 06:17:54;;;;;;;16.08;11.13;;;20.20;94.90;;;;;;4992288;28;20027;-51
2023/05/22 06:20:40;;;;;;;11.48;10.20;;;20.20;94.90;;;;;;4998516;28;20041;-51
2023/05/22 06:23:26;;;;;;;13.50;10.18;;;20.30;94.80;;;;;;5010239;28;20030;-53
2023/05/22 06:26:12;;;;;;;11.52;10.43;;;20.40;94.80;;;;;;5010884;28;20446;-52
2023/05/22 06:28:58;;;;;;;15.65;10.73;;;20.30;94.80;;;;;;5010894;28;20097;-54
2023/05/22 06:31:44;;;;;;;13.85;9.95;;;20.30;94.80;;;;;;5014750;28;20038;-52
2023/05/22 06:34:30;;;;;;;18.38;9.93;;;20.40;95.00;;;;;;5014764;28;20553;-53
2023/05/22 06:37:16;;;;;;;12.65;9.23;;;20.50;94.90;;;;;;5015731;28;20041;-51
2023/05/22 06:40:02;;;;;;;15.05;11.20;;;20.60;94.90;;;;;;5013965;28;20025;-51
2023/05/22 06:42:48;;;;;;;15.63;10.02;;;20.60;94.90;;;;;;5014757;28;20044;-48
2023/05/22 06:45:36;;;;;;;19.88;10.20;;;20.60;94.80;;;;;;5008566;28;20838;-50
2023/05/22 06:48:22;;;;;;;35.22;12.85;;;20.70;94.80;;;;;;5008285;28;20037;-52
2023/05/22 06:51:11;;;;;;;58.72;13.43;;;20.70;94.80;;;;;;5003627;28;20030;-52
2023/05/22 06:53:57;;;;;;;20.20;11.15;;;20.80;94.80;;;;;;5014154;28;20053;-49
2023/05/22 06:56:44;;;;;;;18.60;9.98;;;21.00;94.90;;;;;;5014794;28;20038;-49
2023/05/22 06:59:30;;;;;;;16.63;10.48;;;21.10;94.80;;;;;;5014272;28;20124;-51
2023/05/22 07:02:16;;;;;;;23.13;11.27;;;21.20;94.70;;;;;;5012595;28;20038;-49
2023/05/22 07:05:03;;;;;;;10.82;9.55;;;21.40;94.50;;;;;;4995309;28;20034;-52
2023/05/22 07:07:49;;;;;;;13.07;9.95;;;21.50;94.50;;;;;;4994159;28;20042;-52
2023/05/22 07:10:34;;;;;;;11.93;10.00;;;21.60;94.30;;;;;;5009580;28;20450;-52
2023/05/22 07:13:20;;;;;;;11.05;9.90;;;21.60;94.10;;;;;;5012922;28;20026;-52
2023/05/22 07:16:07;;;;;;;13.45;10.55;;;21.70;94.10;;;;;;5013710;28;20032;-51
2023/05/22 07:18:53;;;;;;;10.38;9.30;;;21.80;94.10;;;;;;5014492;28;20022;-50
2023/05/22 07:21:38;;;;;;;17.08;9.90;;;22.00;94.10;;;;;;5001275;28;20053;-52
2023/05/22 07:24:24;;;;;;;12.70;9.63;;;22.00;93.80;;;;;;5014036;28;20046;-50
2023/05/22 07:27:11;;;;;;;10.77;9.63;;;22.00;93.70;;;;;;5011688;28;20026;-51
2023/05/22 07:29:57;;;;;;;12.60;9.77;;;22.00;93.70;;;;;;5014142;28;20018;-47
2023/05/22 07:32:42;;;;;;;14.00;9.68;;;22.20;93.60;;;;;;5012986;28;20022;-48
2023/05/22 07:35:28;;;;;;;20.30;10.10;;;22.40;93.60;;;;;;5013385;28;20143;-51
2023/05/22 07:38:14;;;;;;;15.27;10.25;;;22.50;93.30;;;;;;5008326;28;20114;-53
2023/05/22 07:41:03;;;;;;;14.32;9.75;;;22.60;93.20;;;;;;5004125;28;20030;-49
2023/05/22 07:43:49;;;;;;;10.38;9.25;;;22.60;93.10;;;;;;5003244;28;20026;-47
2023/05/22 07:46:36;;;;;;;13.20;9.65;;;22.60;93.10;;;;;;5002025;28;20491;-46
2023/05/22 07:49:23;;;;;;;10.95;9.82;;;22.80;92.90;;;;;;4994115;28;20407;-46
2023/05/22 07:52:09;;;;;;;11.73;9.15;;;23.00;93.00;;;;;;5006203;28;20036;-49
2023/05/22 07:54:55;;;;;;;11.63;10.15;;;23.00;92.90;;;;;;4994694;28;20042;-49
2023/05/22 07:57:42;;;;;;;12.73;10.27;;;23.00;93.00;;;;;;5009122;28;20037;-46
2023/05/22 08:00:28;;;;;;;10.77;9.75;;;22.90;92.70;;;;;;5012648;28;20061;-49
2023/05/22 08:03:14;;;;;;;9.60;8.57;;;22.90;93.20;;;;;;5014350;28;20026;-46
2023/05/22 08:06:01;;;;;;;12.25;9.80;;;22.90;92.80;;;;;;4999399;28;20052;-46
2023/05/22 08:08:47;;;;;;;12.07;9.48;;;23.00;92.80;;;;;;5011095;28;20049;-52
2023/05/22 08:11:34;;;;;;;10.63;9.50;;;22.90;92.80;;;;;;4999082;28;20116;-49
2023/05/22 08:14:21;;;;;;;12.27;9.07;;;23.00;92.90;;;;;;5009081;28;20507;-51
2023/05/22 08:17:07;;;;;;;13.52;9.70;;;23.00;93.10;;;;;;5006385;28;20050;-51
2023/05/22 08:19:53;;;;;;;14.23;10.10;;;23.00;92.90;;;;;;5007229;28;20109;-47
2023/05/22 08:22:40;;;;;;;12.57;9.40;;;22.90;93.30;;;;;;5009518;28;20065;-50
2023/05/22 08:25:26;;;;;;;13.35;10.10;;;23.00;93.00;;;;;;5005256;28;20396;-49
2023/05/22 08:28:12;;;;;;;11.85;9.77;;;23.00;93.10;;;;;;5009850;28;20030;-47
2023/05/22 08:30:58;;;;;;;29.13;11.32;;;23.10;93.20;;;;;;5007384;28;20077;-49
2023/05/22 08:33:47;;;;;;;17.27;11.85;;;23.30;93.10;;;;;;5004467;28;20033;-49
2023/05/22 08:36:34;;;;;;;13.32;9.70;;;23.50;93.00;;;;;;5013311;28;20105;-48
2023/05/22 08:39:22;;;;;;;12.18;9.13;;;23.60;92.60;;;;;;5012639;28;20045;-51
2023/05/22 08:42:08;;;;;;;12.98;9.23;;;23.50;93.00;;;;;;5011773;28;20088;-46
2023/05/22 08:44:56;;;;;;;10.68;9.40;;;23.70;92.90;;;;;;5012381;28;20033;-46
2023/05/22 08:47:44;;;;;;;18.73;9.73;;;23.90;92.50;;;;;;5008158;28;20037;-49
2023/05/22 08:50:31;;;;;;;16.63;9.95;;;24.00;92.40;;;;;;5010634;28;20113;-49
2023/05/22 08:53:20;;;;;;;13.80;9.70;;;24.00;92.50;;;;;;5011040;28;20379;-45
2023/05/22 08:56:07;;;;;;;15.55;9.15;;;24.00;92.20;;;;;;5012368;28;20427;-46
2023/05/22 08:58:54;;;;;;;9.98;8.98;;;23.90;92.10;;;;;;5009947;28;20092;-48
2023/05/22 09:01:41;;;;;;;20.15;9.73;;;24.00;91.90;;;;;;5011067;28;20583;-52
2023/05/22 09:04:27;;;;;;;12.52;9.00;;;23.90;91.60;;;;;;5009251;28;20041;-52
2023/05/22 09:07:13;;;;;;;14.20;9.35;;;23.90;91.50;;;;;;5009430;28;20037;-50
2023/05/22 09:10:00;;;;;;;10.00;9.07;;;24.10;92.00;;;;;;5010330;28;20094;-49
2023/05/22 09:13:07;;;;;;;19.05;10.07;;;24.20;91.70;;;;;;5012340;28;20072;-45
2023/05/22 09:16:11;;;;;;;10.48;8.32;;;24.30;91.40;;;;;;5012584;28;20030;-50
2023/05/22 09:18:56;;;;;;;9.57;8.50;;;24.30;91.10;;;;;;5011518;28;20025;-49
2023/05/22 09:21:46;;;;;;;11.07;8.98;;;24.30;91.10;;;;;;5010178;28;20068;-50
2023/05/22 09:24:41;;;;;;;14.30;9.02;;;24.40;91.00;;;;;;5012319;28;20061;-53
2023/05/22 09:27:27;;;;;;;;;;;24.60;90.80;;;;;;5012969;28;20061;-51
2023/05/22 09:30:17;;;;;;;16.50;8.18;;;24.60;90.50;;;;;;5011651;28;19913;-52
2023/05/22 09:33:03;;;;;;;11.52;7.97;;;24.60;90.40;;;;;;5012705;28;20049;-51
2023/05/22 09:35:51;;;;;;;11.27;8.82;;;24.70;90.30;;;;;;5010817;28;20041;-50
2023/05/22 09:38:38;;;;;;;10.25;8.57;;;24.80;90.30;;;;;;5012680;28;20057;-47
2023/05/22 09:41:25;;;;;;;10.23;8.13;;;25.00;90.40;;;;;;5012418;28;20034;-50
2023/05/22 09:44:12;;;;;;;9.93;8.52;;;25.00;90.40;;;;;;5012029;28;20088;-49
2023/05/22 09:46:58;;;;;;;13.95;8.50;;;25.20;90.30;;;;;;5013005;28;20109;-51
2023/05/22 09:49:45;;;;;;;8.07;7.28;;;25.30;89.10;;;;;;5010989;28;20083;-51
2023/05/22 09:52:35;;;;;;;10.40;7.70;;;25.40;89.20;;;;;;5011006;28;20522;-48
2023/05/22 09:55:22;;;;;;;10.68;7.47;;;25.60;87.40;;;;;;5013232;28;20026;-49
2023/05/22 09:58:14;;;;;;;10.50;7.05;;;25.80;85.30;;;;;;5012222;28;20407;-49
2023/05/22 10:01:01;;;;;;;9.00;7.38;;;25.90;84.50;;;;;;5012646;28;20067;-49
2023/05/22 10:03:50;;;;;;;8.68;6.70;;;26.00;83.60;;;;;;5010861;28;20021;-53
2023/05/22 10:06:38;;;;;;;8.98;6.50;;;26.10;83.80;;;;;;5011133;28;20109;-53
2023/05/22 10:09:30;;;;;;;11.68;7.35;;;26.20;83.10;;;;;;5012317;28;20026;-51
2023/05/22 10:12:19;;;;;;;8.70;6.70;;;26.30;81.00;;;;;;5012356;28;20030;-49
2023/05/22 10:15:08;;;;;;;11.50;6.50;;;26.10;79.60;;;;;;5011279;28;20100;-50
2023/05/22 10:17:55;;;;;;;13.05;7.00;;;25.80;80.20;;;;;;5012121;28;20032;-48
2023/05/22 10:20:41;;;;;;;8.05;6.57;;;25.60;80.70;;;;;;5011663;28;20066;-48
2023/05/22 10:23:28;;;;;;;11.80;7.15;;;25.40;80.90;;;;;;5012076;28;20037;-46
2023/05/22 10:26:16;;;;;;;9.35;7.47;;;25.60;81.30;;;;;;5012085;28;20061;-47
2023/05/22 10:29:10;;;;;;;8.88;7.30;;;25.50;81.20;;;;;;5013321;28;20031;-47
2023/05/22 10:32:34;;;;;;;8.47;7.03;;;25.50;81.20;;;;;;5013242;28;20065;-47
2023/05/22 10:35:59;;;;;;;10.68;7.63;;;25.80;81.30;;;;;;5013131;28;20253;-45
2023/05/22 10:38:54;;;;;;;10.13;7.70;;;26.00;81.30;;;;;;5012134;28;20490;-47
2023/05/22 10:41:40;;;;;;;12.07;7.53;;;26.30;80.90;;;;;;5011265;28;20057;-46
2023/05/22 10:44:26;;;;;;;9.20;7.07;;;26.50;80.30;;;;;;5010788;28;20382;-46
2023/05/22 10:47:13;;;;;;;8.77;7.10;;;26.40;79.40;;;;;;5010369;28;20088;-48
2023/05/22 10:50:10;;;;;;;8.30;6.95;;;26.30;79.60;;;;;;5010717;28;20034;-50
2023/05/22 10:53:24;;;;;;;11.13;8.13;;;26.30;79.40;;;;;;5012368;28;20022;-47
2023/05/22 10:56:15;;;;;;;11.65;7.15;;;26.40;78.70;;;;;;5012252;28;20498;-45
2023/05/22 10:59:09;;;;;;;9.43;6.97;;;26.40;78.40;;;;;;5010875;28;20117;-47
2023/05/22 11:01:59;;;;;;;7.35;6.65;;;26.30;78.40;;;;;;5011770;28;20113;-47
2023/05/22 11:04:46;;;;;;;11.63;7.05;;;26.30;77.80;;;;;;5011719;28;20040;-49
2023/05/22 11:07:40;;;;;;;8.25;6.97;;;26.50;78.20;;;;;;5011320;28;20030;-50
2023/05/22 11:10:46;;;;;;;7.90;6.47;;;26.40;77.70;;;;;;5011973;28;20483;-51
2023/05/22 11:13:33;;;;;;;9.75;7.13;;;26.30;76.80;;;;;;5011667;28;20037;-47
2023/05/22 11:16:19;;;;;;;7.90;6.80;;;26.50;77.10;;;;;;5011056;28;20120;-50
2023/05/22 11:19:11;;;;;;;9.70;7.35;;;26.70;78.10;;;;;;5013879;28;20037;-47
2023/05/22 11:22:02;;;;;;;7.82;6.75;;;26.90;77.00;;;;;;5015193;28;20034;-47
2023/05/22 11:24:48;;;;;;;11.98;7.05;;;27.00;76.90;;;;;;5016513;28;20034;-48
2023/05/22 11:27:35;;;;;;;8.73;7.38;;;26.90;77.30;;;;;;5015680;28;20037;-49
2023/05/22 11:30:26;;;;;;;8.43;7.35;;;26.80;77.30;;;;;;5016985;28;20030;-46
2023/05/22 11:33:13;;;;;;;7.88;7.00;;;27.00;77.10;;;;;;5015683;28;20132;-50
2023/05/22 11:36:00;;;;;;;8.13;6.43;;;27.20;75.70;;;;;;5014464;28;20022;-49
2023/05/22 11:38:46;;;;;;;12.27;7.57;;;27.10;74.50;;;;;;5014535;28;20050;-52
2023/05/22 11:41:33;;;;;;;9.07;6.80;;;27.10;75.30;;;;;;5013394;28;20049;-45
2023/05/22 11:44:19;;;;;;;10.77;6.93;;;27.10;73.70;;;;;;5013144;28;20509;-47
2023/05/22 11:47:05;;;;;;;11.55;7.55;;;26.90;74.10;;;;;;5013066;28;20126;-52
2023/05/22 11:49:53;;;;;;;12.57;7.30;;;27.10;74.80;;;;;;5014730;28;20491;-46
2023/05/22 11:52:40;;;;;;;10.40;7.63;;;27.30;75.10;;;;;;5014860;28;20079;-47
2023/05/22 11:55:26;;;;;;;9.57;7.00;;;27.50;75.40;;;;;;5014549;28;20018;-46
2023/05/22 11:58:12;;;;;;;10.23;7.30;;;27.70;75.50;;;;;;5013154;28;20040;-47
2023/05/22 12:01:00;;;;;;;12.00;7.10;;;27.80;74.60;;;;;;5013685;28;20464;-46
2023/05/22 12:03:46;;;;;;;11.13;7.35;;;27.80;74.60;;;;;;5015048;28;20112;-48
2023/05/22 12:06:32;;;;;;;10.93;7.47;;;27.60;75.70;;;;;;5012774;28;20119;-48
2023/05/22 12:09:18;;;;;;;11.10;7.20;;;27.80;75.70;;;;;;5013934;28;20022;-48
2023/05/22 12:12:04;;;;;;;9.18;7.90;;;27.90;74.90;;;;;;5012217;28;20045;-54
2023/05/22 12:14:50;;;;;;;10.15;7.35;;;28.10;74.70;;;;;;5014032;28;20042;-50
2023/05/22 12:17:37;;;;;;;11.40;8.13;;;28.20;73.50;;;;;;5015193;28;20458;-52
2023/05/22 12:20:29;;;;;;;7.57;6.72;;;28.30;73.00;;;;;;5012629;28;20029;-47
2023/05/22 12:23:22;;;;;;;12.13;6.47;;;28.50;72.80;;;;;;5014161;28;20038;-49
2023/05/22 12:26:08;;;;;;;8.33;7.33;;;28.30;72.20;;;;;;5014897;28;20525;-47
2023/05/22 12:29:01;;;;;;;7.82;6.78;;;28.20;71.90;;;;;;5012114;28;20258;-48
2023/05/22 12:31:53;;;;;;;9.20;6.50;;;28.40;72.40;;;;;;5013455;28;20069;-45
2023/05/22 12:34:43;;;;;;;8.70;6.40;;;28.60;71.80;;;;;;5013788;28;20026;-47
2023/05/22 12:37:35;;;;;;;9.00;6.57;;;28.90;71.50;;;;;;5012693;28;20461;-48
2023/05/22 12:40:21;;;;;;;7.57;6.10;;;29.00;71.00;;;;;;5012864;28;20026;-48
2023/05/22 12:43:07;;;;;;;9.05;6.50;;;29.10;71.10;;;;;;5013241;28;20026;-48
2023/05/22 12:45:53;;;;;;;8.48;6.35;;;28.80;70.80;;;;;;5012853;28;20033;-50
2023/05/22 12:48:39;;;;;;;8.18;6.65;;;28.70;70.80;;;;;;5013025;28;20426;-48
2023/05/22 12:51:30;;;;;;;8.43;7.07;;;28.90;71.00;;;;;;5013444;28;20032;-50
2023/05/22 12:54:16;;;;;;;8.13;6.88;;;28.90;70.70;;;;;;5013087;28;20125;-48
2023/05/22 12:57:01;;;;;;;9.75;6.95;;;29.10;70.60;;;;;;5013662;28;20120;-51
2023/05/22 12:59:47;;;;;;;7.75;6.75;;;29.10;70.80;;;;;;5012966;28;20351;-47
2023/05/22 13:02:34;;;;;;;8.48;7.13;;;29.10;70.30;;;;;;5012196;28;20439;-49
2023/05/22 13:05:20;;;;;;;7.53;6.32;;;28.90;69.40;;;;;;5012691;28;20038;-50
2023/05/22 13:08:06;;;;;;;10.13;7.22;;;29.10;69.40;;;;;;5011268;28;20038;-47
2023/05/22 13:10:52;;;;;;;8.63;6.80;;;29.10;68.50;;;;;;5009488;28;20038;-49
2023/05/22 13:13:38;;;;;;;10.65;7.03;;;29.40;68.10;;;;;;4997128;28;20034;-47
2023/05/22 13:16:24;;;;;;;23.48;21.33;;;29.40;68.10;;;;;;5009286;28;20026;-48
2023/05/22 13:19:10;;;;;;;16.17;13.77;;;29.70;68.10;;;;;;5009363;28;20030;-48
2023/05/22 13:21:56;;;;;;;10.18;8.82;;;29.90;67.90;;;;;;4993063;28;20026;-53
2023/05/22 13:24:42;;;;;;;9.30;6.93;;;30.10;67.10;;;;;;4993025;28;20034;-53
2023/05/22 13:27:28;;;;;;;10.13;7.70;;;30.10;67.20;;;;;;4996026;28;20034;-53
2023/05/22 13:30:14;;;;;;;11.43;7.38;;;30.20;67.20;;;;;;5011884;28;20033;-49
2023/05/22 13:33:00;;;;;;;8.95;7.55;;;30.30;68.40;;;;;;5012244;28;20525;-45
2023/05/22 13:35:47;;;;;;;9.70;6.80;;;30.50;68.80;;;;;;5011502;28;20030;-46
2023/05/22 13:38:33;;;;;;;11.18;6.68;;;30.70;67.80;;;;;;5011346;28;20033;-47
2023/05/22 13:41:20;;;;;;;7.90;6.63;;;30.90;66.90;;;;;;5011866;28;20026;-48
2023/05/22 13:44:06;;;;;;;9.55;6.70;;;30.90;66.10;;;;;;5012167;28;20450;-48
2023/05/22 13:46:52;;;;;;;10.32;7.18;;;30.80;65.60;;;;;;4993106;28;20511;-48
2023/05/22 13:49:38;;;;;;;9.30;8.25;;;30.90;65.50;;;;;;4992715;28;20100;-49
2023/05/22 13:52:24;;;;;;;9.73;6.78;;;31.10;65.70;;;;;;4992073;28;20113;-46
2023/05/22 13:55:10;;;;;;;10.68;6.82;;;31.10;65.60;;;;;;4992362;28;20489;-49
2023/05/22 13:57:55;;;;;;;8.48;6.55;;;31.10;64.70;;;;;;4991167;28;20034;-47
2023/05/22 14:00:41;;;;;;;9.43;6.82;;;31.40;64.90;;;;;;4993583;28;20076;-49
2023/05/22 14:03:27;;;;;;;7.18;6.43;;;31.50;65.40;;;;;;4995146;28;20035;-51
2023/05/22 14:06:13;;;;;;;7.53;5.93;;;31.50;64.20;;;;;;4994362;28;20411;-49
2023/05/22 14:08:59;;;;;;;11.02;6.65;;;31.70;63.80;;;;;;4993785;28;20061;-47
2023/05/22 14:11:45;;;;;;;8.23;6.10;;;31.80;63.40;;;;;;4992316;28;20054;-46
2023/05/22 14:14:32;;;;;;;9.05;6.65;;;32.00;62.80;;;;;;4992685;28;20450;-48
2023/05/22 14:17:20;;;;;;;7.20;6.18;;;31.70;61.60;;;;;;4992646;28;20034;-47
2023/05/22 14:20:07;;;;;;;9.27;6.32;;;31.70;62.40;;;;;;4991628;28;20034;-49
2023/05/22 14:22:53;;;;;;;10.05;6.38;;;31.80;61.30;;;;;;4992020;28;20034;-47